Terminal Aerodrome Forecast
Issued by NWS

Home | Current Version | Previous Version | Text Only | Print | Product List | Glossary On
Versions: 1 2 3 4 5 6 7 8 9 10 11 12 13 14 15 16 17 18 19 20 21 22
000
FTUS45 KTFX 050536
TAFCTB
TAF
KCTB 050536Z 0506/0606 34011KT 2SM -SN BR BKN025 OVC040
     FM050900 33012KT P6SM OVC025
     FM060100 31009KT P6SM OVC035=

USA.gov is the U.S. government's official web portal to all federal, state and local government web resources and services.